createdAt,value
2018-05-04T00:01:05.459Z,4.93
2018-05-04T00:03:34.544Z,5.20
2018-05-04T00:06:02.901Z,5.20
2018-05-04T00:08:31.248Z,5.03
2018-05-04T00:10:59.583Z,5.03
2018-05-04T00:13:27.965Z,5.80
2018-05-04T00:15:57.057Z,5.20
2018-05-04T00:18:26.155Z,4.63
2018-05-04T00:20:55.968Z,5.43
2018-05-04T00:23:24.307Z,4.97
2018-05-04T00:25:53.414Z,5.03
2018-05-04T00:28:21.776Z,4.60
2018-05-04T00:30:50.096Z,4.80
2018-05-04T00:33:18.445Z,4.77
2018-05-04T00:35:46.806Z,4.37
2018-05-04T00:38:15.151Z,5.17
2018-05-04T00:40:44.270Z,5.20
2018-05-04T00:43:12.885Z,5.10
2018-05-04T00:45:41.604Z,4.30
2018-05-04T00:48:10.689Z,4.70
2018-05-04T00:50:39.027Z,4.47
2018-05-04T00:53:07.391Z,4.90
2018-05-04T00:55:35.705Z,4.90
2018-05-04T00:58:04.043Z,5.07
2018-05-04T01:00:32.355Z,4.50
2018-05-04T01:03:00.656Z,3.97
2018-05-04T01:05:29.364Z,6.00
2018-05-04T01:07:57.727Z,7.10
2018-05-04T01:10:26.031Z,7.60
2018-05-04T01:12:55.169Z,6.97
2018-05-04T01:15:23.532Z,7.13
2018-05-04T01:17:51.838Z,7.50
2018-05-04T01:20:20.296Z,6.87
2018-05-04T01:22:48.555Z,7.73
2018-05-04T01:25:16.881Z,8.00
2018-05-04T01:27:45.739Z,8.03
2018-05-04T01:30:14.055Z,8.70
2018-05-04T01:32:42.372Z,7.97
2018-05-04T01:35:11.528Z,7.40
2018-05-04T01:37:39.862Z,8.20
2018-05-04T01:40:08.164Z,7.90
2018-05-04T01:42:36.559Z,7.57
2018-05-04T01:45:04.913Z,7.17
2018-05-04T01:47:33.224Z,5.77
2018-05-04T01:50:02.035Z,5.40
2018-05-04T01:52:30.357Z,5.80
2018-05-04T01:54:58.643Z,5.07
2018-05-04T01:57:26.990Z,4.50
2018-05-04T01:59:55.320Z,5.27
2018-05-04T02:02:23.637Z,5.07
2018-05-04T02:04:52.761Z,5.10
2018-05-04T02:07:21.072Z,5.43
2018-05-04T02:09:49.395Z,4.80
2018-05-04T02:12:18.692Z,5.20
2018-05-04T02:14:47.782Z,4.73
2018-05-04T02:17:16.846Z,5.43
2018-05-04T02:19:45.197Z,4.83
2018-05-04T02:22:13.535Z,5.70
2018-05-04T02:24:41.849Z,6.90
2018-05-04T02:27:10.195Z,5.83
2018-05-04T02:29:39.285Z,6.23
2018-05-04T02:32:08.399Z,6.47
2018-05-04T02:34:37.958Z,5.47
2018-05-04T02:37:06.296Z,5.30
2018-05-04T02:39:34.607Z,5.00
2018-05-04T02:42:02.952Z,5.43
2018-05-04T02:44:31.267Z,4.23
2018-05-04T02:46:59.620Z,4.83
2018-05-04T02:49:28.002Z,4.70
2018-05-04T02:51:56.319Z,5.10
2018-05-04T02:54:24.620Z,5.30
2018-05-04T02:56:53.953Z,4.70
2018-05-04T02:59:22.314Z,5.23
2018-05-04T03:01:50.644Z,4.80
2018-05-04T03:04:19.005Z,4.77
2018-05-04T03:06:47.315Z,4.80
2018-05-04T03:09:15.631Z,4.80
2018-05-04T03:11:44.010Z,4.83
2018-05-04T03:14:12.313Z,4.70
2018-05-04T03:16:40.620Z,4.80
2018-05-04T03:19:09.423Z,5.90
2018-05-04T03:21:37.719Z,4.87
2018-05-04T03:24:06.806Z,5.07
2018-05-04T03:26:35.923Z,5.30
2018-05-04T03:29:04.257Z,5.70
2018-05-04T03:31:34.069Z,5.00
2018-05-04T03:34:02.414Z,5.70
2018-05-04T03:36:30.724Z,5.53
2018-05-04T03:38:59.077Z,6.50
2018-05-04T03:41:27.491Z,5.63
2018-05-04T03:43:55.855Z,6.17
2018-05-04T03:46:24.175Z,6.97
2018-05-04T03:48:52.542Z,5.67
2018-05-04T03:51:20.881Z,6.50
2018-05-04T03:53:49.235Z,6.47
2018-05-04T03:56:17.582Z,6.37
2018-05-04T04:02:32.234Z,5.87
2018-05-04T04:05:00.584Z,7.67
2018-05-04T04:07:28.899Z,6.60
2018-05-04T04:09:57.220Z,7.33
2018-05-04T04:12:26.318Z,6.73
2018-05-04T04:14:55.434Z,6.93
2018-05-04T04:17:23.822Z,6.83
2018-05-04T04:19:52.166Z,6.13
2018-05-04T04:22:21.246Z,7.47
2018-05-04T04:24:49.915Z,7.03
2018-05-04T04:27:18.231Z,6.10
2018-05-04T04:29:47.319Z,6.20
2018-05-04T04:32:16.428Z,7.23
2018-05-04T04:34:45.498Z,6.13
2018-05-04T04:39:49.053Z,6.17
2018-05-04T04:42:17.377Z,5.57
2018-05-04T04:44:45.709Z,5.80
2018-05-04T04:47:14.374Z,6.57
2018-05-04T04:49:42.702Z,5.70
2018-05-04T04:52:11.009Z,5.47
2018-05-04T04:54:39.355Z,7.37
2018-05-04T04:57:07.673Z,6.00
2018-05-04T04:59:36.008Z,6.13
2018-05-04T05:02:04.486Z,5.23
2018-05-04T05:04:32.843Z,5.17
2018-05-04T05:07:01.179Z,5.20
2018-05-04T05:09:29.905Z,6.17
2018-05-04T05:11:58.996Z,5.50
2018-05-04T05:14:27.345Z,5.77
2018-05-04T05:16:55.689Z,5.40
2018-05-04T05:19:24.122Z,4.70
2018-05-04T05:21:53.253Z,6.07
2018-05-04T05:24:22.345Z,6.00
2018-05-04T05:26:50.671Z,4.83
2018-05-04T05:29:18.980Z,5.47
2018-05-04T05:31:47.654Z,5.50
2018-05-04T05:34:16.008Z,5.40
2018-05-04T05:36:44.339Z,4.30
2018-05-04T05:39:13.451Z,5.43
2018-05-04T05:41:41.781Z,5.20
2018-05-04T05:44:10.106Z,5.50
2018-05-04T05:46:38.911Z,6.50
2018-05-04T05:49:07.283Z,5.63
2018-05-04T05:51:35.588Z,4.67
2018-05-04T05:54:04.067Z,4.93
2018-05-04T05:56:32.425Z,4.50
2018-05-04T05:59:00.861Z,5.07
2018-05-04T06:01:29.258Z,4.53
2018-05-04T06:03:57.590Z,4.37
2018-05-04T06:06:26.098Z,4.57
2018-05-04T06:08:54.463Z,4.63
2018-05-04T06:11:22.778Z,4.63
2018-05-04T06:13:51.180Z,4.27
2018-05-04T06:16:20.187Z,4.57
2018-05-04T06:18:48.507Z,4.40
2018-05-04T06:21:16.867Z,4.63
2018-05-04T06:23:45.200Z,3.67
2018-05-04T06:26:13.517Z,3.97
2018-05-04T06:28:41.870Z,3.90
2018-05-04T06:31:10.232Z,3.40
2018-05-04T06:33:38.563Z,3.83
2018-05-04T06:36:06.937Z,6.10
2018-05-04T06:38:35.470Z,7.37
2018-05-04T06:41:03.823Z,5.53
2018-05-04T06:43:32.174Z,5.23
2018-05-04T06:46:00.529Z,5.40
2018-05-04T06:48:29.034Z,3.73
2018-05-04T06:50:57.397Z,3.83
2018-05-04T06:53:25.779Z,3.50
2018-05-04T06:55:54.115Z,3.30
2018-05-04T06:58:23.194Z,3.97
2018-05-04T07:00:51.982Z,3.80
2018-05-04T07:03:20.283Z,4.30
2018-05-04T07:05:48.669Z,3.83
2018-05-04T07:08:17.862Z,4.80
2018-05-04T07:10:46.198Z,3.33
2018-05-04T07:13:14.567Z,3.30
2018-05-04T07:15:42.914Z,3.60
2018-05-04T07:18:11.234Z,3.83
2018-05-04T07:20:39.582Z,3.80
2018-05-04T07:23:08.519Z,2.83
2018-05-04T07:25:36.862Z,3.10
2018-05-04T07:28:05.199Z,3.13
2018-05-04T07:30:34.316Z,2.97
2018-05-04T07:33:02.789Z,3.00
2018-05-04T07:35:31.119Z,2.63
2018-05-04T07:37:59.478Z,2.60
2018-05-04T07:40:27.817Z,2.47
2018-05-04T07:42:56.913Z,2.57
2018-05-04T07:45:26.325Z,3.00
2018-05-04T07:47:54.662Z,2.80
2018-05-04T07:50:23.350Z,3.37
2018-05-04T07:52:51.690Z,2.83
2018-05-04T07:55:20.019Z,3.43
2018-05-04T07:57:48.327Z,3.00
2018-05-04T08:00:16.734Z,3.00
2018-05-04T08:02:45.055Z,2.80
2018-05-04T08:05:13.380Z,4.97
2018-05-04T08:07:42.243Z,3.77
2018-05-04T08:10:11.308Z,3.70
2018-05-04T08:12:40.411Z,3.10
2018-05-04T08:15:08.862Z,3.37
2018-05-04T08:17:37.217Z,3.20
2018-05-04T08:20:05.653Z,3.60
2018-05-04T08:22:34.691Z,3.33
2018-05-04T08:25:03.074Z,3.17
2018-05-04T08:27:31.408Z,2.80
2018-05-04T08:30:00.455Z,3.20
2018-05-04T08:32:28.854Z,2.93
2018-05-04T08:34:57.191Z,3.00
2018-05-04T08:37:25.567Z,3.13
2018-05-04T08:39:54.666Z,3.47
2018-05-04T08:42:23.759Z,3.23
2018-05-04T08:44:52.154Z,3.63
2018-05-04T08:47:20.474Z,2.73
2018-05-04T08:49:48.776Z,3.00
2018-05-04T08:52:17.384Z,2.70
2018-05-04T08:54:45.691Z,3.53
2018-05-04T08:57:14.835Z,3.50
2018-05-04T08:59:43.172Z,3.80
2018-05-04T09:02:11.531Z,3.47
2018-05-04T09:04:39.848Z,2.93
2018-05-04T09:07:08.271Z,3.40
2018-05-04T09:09:36.637Z,3.40
2018-05-04T09:12:04.908Z,3.30
2018-05-04T09:14:33.314Z,3.93
2018-05-04T09:17:02.385Z,3.67
2018-05-04T09:19:30.731Z,17.87
2018-05-04T09:21:59.067Z,3.83
2018-05-04T09:24:28.148Z,3.40
2018-05-04T09:26:57.234Z,3.50
2018-05-04T09:29:25.608Z,3.30
2018-05-04T09:31:53.956Z,5.10
2018-05-04T09:34:22.299Z,3.90
2018-05-04T09:36:51.445Z,3.50
2018-05-04T09:39:19.739Z,3.73
2018-05-04T09:41:48.091Z,3.63
2018-05-04T09:44:16.462Z,3.17
2018-05-04T09:46:44.889Z,3.50
2018-05-04T09:49:13.234Z,6.70
2018-05-04T09:51:41.559Z,3.60
2018-05-04T09:54:09.864Z,3.50
2018-05-04T09:56:38.206Z,3.33
2018-05-04T09:59:07.678Z,3.10
2018-05-04T10:01:35.980Z,6.30
2018-05-04T10:04:04.302Z,2.70
2018-05-04T10:06:32.650Z,4.27
2018-05-04T10:09:01.779Z,2.90
2018-05-04T10:11:30.125Z,3.30
2018-05-04T10:13:59.220Z,3.17
2018-05-04T10:16:28.294Z,3.17
2018-05-04T10:18:56.633Z,2.90
2018-05-04T10:21:25.156Z,3.00
2018-05-04T10:23:53.504Z,9.93
2018-05-04T10:26:21.828Z,2.90
2018-05-04T10:28:50.196Z,2.47
2018-05-04T10:31:18.642Z,2.80
2018-05-04T10:33:47.684Z,2.70
2018-05-04T10:36:16.075Z,2.80
2018-05-04T10:38:44.396Z,2.60
2018-05-04T10:41:12.760Z,2.10
2018-05-04T10:43:41.508Z,2.17
2018-05-04T10:46:10.185Z,2.37
2018-05-04T10:48:38.499Z,2.70
2018-05-04T10:51:06.863Z,2.40
2018-05-04T10:53:35.963Z,3.10
2018-05-04T10:56:05.049Z,2.27
2018-05-04T10:58:34.166Z,2.80
2018-05-04T11:01:02.487Z,2.33
2018-05-04T11:03:30.811Z,2.60
2018-05-04T11:05:59.448Z,3.93
2018-05-04T11:08:27.771Z,2.63
2018-05-04T11:10:56.091Z,2.50
2018-05-04T11:13:24.434Z,3.30
2018-05-04T11:15:53.546Z,2.93
2018-05-04T11:18:21.899Z,3.33
2018-05-04T11:20:50.268Z,2.50
2018-05-04T11:23:18.582Z,2.43
2018-05-04T11:25:46.926Z,2.33
2018-05-04T11:28:15.641Z,2.20
2018-05-04T11:30:44.712Z,2.70
2018-05-04T11:33:13.003Z,2.70
2018-05-04T11:35:42.115Z,2.33
2018-05-04T11:38:10.440Z,2.40
2018-05-04T11:40:38.776Z,2.20
2018-05-04T11:43:07.155Z,2.63
2018-05-04T11:45:35.498Z,2.30
2018-05-04T11:48:03.872Z,2.63
2018-05-04T11:50:32.474Z,3.33
2018-05-04T11:53:00.946Z,2.67
2018-05-04T11:55:29.270Z,2.53
2018-05-04T11:57:57.660Z,3.00
2018-05-04T12:00:25.991Z,2.80
2018-05-04T12:02:55.089Z,3.00
2018-05-04T12:05:24.211Z,2.63
2018-05-04T12:07:52.535Z,3.47
2018-05-04T12:10:20.831Z,2.30
2018-05-04T12:12:50.168Z,3.17
2018-05-04T12:15:18.467Z,3.00
2018-05-04T12:17:46.798Z,2.83
2018-05-04T12:20:15.958Z,2.60
2018-05-04T12:22:44.296Z,2.90
2018-05-04T12:25:12.608Z,2.57
2018-05-04T12:27:40.989Z,2.60
2018-05-04T12:30:09.357Z,2.10
2018-05-04T12:32:37.683Z,2.47
2018-05-04T12:35:07.335Z,2.40
2018-05-04T12:37:35.653Z,2.53
2018-05-04T12:40:03.969Z,2.03
2018-05-04T12:42:33.073Z,2.20
2018-05-04T12:45:01.507Z,2.50
2018-05-04T12:47:29.820Z,2.47
2018-05-04T12:49:58.937Z,2.73
2018-05-04T12:52:27.289Z,2.40
2018-05-04T12:54:55.859Z,2.43
2018-05-04T12:57:24.495Z,2.13
2018-05-04T12:59:52.822Z,2.30
2018-05-04T13:02:21.136Z,1.73
2018-05-04T13:04:49.518Z,2.37
2018-05-04T13:07:17.855Z,2.60
2018-05-04T13:09:46.153Z,2.30
2018-05-04T13:12:15.270Z,2.83
2018-05-04T13:14:43.619Z,2.60
2018-05-04T13:17:11.948Z,1.87
2018-05-04T13:19:40.775Z,2.77
2018-05-04T13:22:09.134Z,2.10
2018-05-04T13:24:37.458Z,2.70
2018-05-04T13:27:06.571Z,2.23
2018-05-04T13:29:34.909Z,2.70
2018-05-04T13:32:03.206Z,2.10
2018-05-04T13:34:31.542Z,3.67
2018-05-04T13:36:59.886Z,2.40
2018-05-04T13:39:28.223Z,2.57
2018-05-04T13:41:56.685Z,3.23
2018-05-04T13:44:25.034Z,3.30
2018-05-04T13:46:53.328Z,2.70
2018-05-04T13:49:21.693Z,2.27
2018-05-04T13:51:50.032Z,2.60
2018-05-04T13:54:19.221Z,2.80
2018-05-04T13:56:47.529Z,2.63
2018-05-04T13:59:15.874Z,2.30
2018-05-04T14:01:44.224Z,2.93
2018-05-04T14:04:12.716Z,2.30
2018-05-04T14:06:41.035Z,2.90
2018-05-04T14:09:10.156Z,2.90
2018-05-04T14:11:38.518Z,2.47
2018-05-04T14:14:06.836Z,2.30
2018-05-04T14:16:35.186Z,2.37
2018-05-04T14:19:03.539Z,2.00
2018-05-04T14:21:31.863Z,2.17
2018-05-04T14:24:00.193Z,2.00
2018-05-04T14:26:28.824Z,2.20
2018-05-04T14:28:57.135Z,2.40
2018-05-04T14:31:25.451Z,2.00
2018-05-04T14:33:54.700Z,1.80
2018-05-04T14:36:23.010Z,2.40
2018-05-04T14:38:51.357Z,1.90
2018-05-04T14:41:19.760Z,1.70
2018-05-04T14:43:48.104Z,2.17
2018-05-04T14:46:16.682Z,2.37
2018-05-04T14:48:45.515Z,1.93
2018-05-04T14:51:13.827Z,2.20
2018-05-04T14:53:42.134Z,2.00
2018-05-04T14:56:10.498Z,1.67
2018-05-04T14:58:38.921Z,2.60
2018-05-04T15:01:07.244Z,2.13
2018-05-04T15:03:35.567Z,2.23
2018-05-04T15:06:03.895Z,2.33
2018-05-04T15:08:33.003Z,5.10
2018-05-04T15:11:01.876Z,2.60
2018-05-04T15:13:30.202Z,3.53
2018-05-04T15:15:58.578Z,3.07
2018-05-04T15:18:26.947Z,2.27
2018-05-04T15:20:55.297Z,2.30
2018-05-04T15:23:24.400Z,2.70
2018-05-04T15:25:53.526Z,2.67
2018-05-04T15:28:21.867Z,2.60
2018-05-04T15:30:50.249Z,2.63
2018-05-04T15:33:19.602Z,2.47
2018-05-04T15:35:47.988Z,2.20
2018-05-04T15:38:16.342Z,2.50
2018-05-04T15:40:44.722Z,2.50
2018-05-04T15:43:13.031Z,2.30
2018-05-04T15:45:41.468Z,2.10
2018-05-04T15:48:15.299Z,3.27
2018-05-04T15:50:49.167Z,2.63
2018-05-04T15:53:17.732Z,2.80
2018-05-04T15:55:46.854Z,2.70
2018-05-04T15:58:15.395Z,2.90
2018-05-04T16:00:43.720Z,2.90
2018-05-04T16:03:12.019Z,2.43
2018-05-04T16:05:40.357Z,2.77
2018-05-04T16:08:08.739Z,2.13
2018-05-04T16:10:37.837Z,2.63
2018-05-04T16:13:06.936Z,2.77
2018-05-04T16:15:36.533Z,2.53
2018-05-04T16:18:04.876Z,2.80
2018-05-04T16:20:33.259Z,3.47
2018-05-04T16:23:01.616Z,2.67
2018-05-04T16:25:29.971Z,2.97
2018-05-04T16:27:58.314Z,2.90
2018-05-04T16:30:26.667Z,2.60
2018-05-04T16:32:55.025Z,2.90
2018-05-04T16:35:23.353Z,3.20
2018-05-04T16:37:51.843Z,2.50
2018-05-04T16:40:20.174Z,2.73
2018-05-04T16:42:48.520Z,2.63
2018-05-04T16:45:16.894Z,2.60
2018-05-04T16:47:50.600Z,2.50
2018-05-04T16:50:19.717Z,2.60
2018-05-04T16:52:48.056Z,2.70
2018-05-04T16:55:16.383Z,4.20
2018-05-04T16:57:45.070Z,2.60
2018-05-04T17:00:13.416Z,2.10
2018-05-04T17:02:41.758Z,2.77
2018-05-04T17:05:10.248Z,2.20
2018-05-04T17:07:38.561Z,2.57
2018-05-04T17:10:06.904Z,2.73
2018-05-04T17:12:35.286Z,2.23
2018-05-04T17:15:03.622Z,2.80
2018-05-04T17:17:31.926Z,2.50
2018-05-04T17:20:00.773Z,2.00
2018-05-04T17:22:29.101Z,2.07
2018-05-04T17:24:57.417Z,1.47
2018-05-04T17:27:26.535Z,2.10
2018-05-04T17:29:54.888Z,2.00
2018-05-04T17:32:23.236Z,2.03
2018-05-04T17:34:51.602Z,2.57
2018-05-04T17:37:19.954Z,2.20
2018-05-04T17:39:48.268Z,2.23
2018-05-04T17:42:16.752Z,1.70
2018-05-04T17:44:45.104Z,2.30
2018-05-04T17:47:13.425Z,1.97
2018-05-04T17:49:41.804Z,2.10
2018-05-04T17:52:10.143Z,1.70
2018-05-04T17:54:38.465Z,2.17
2018-05-04T17:57:06.804Z,2.30
2018-05-04T17:59:35.134Z,2.57
2018-05-04T18:02:04.228Z,2.87
2018-05-04T18:04:33.735Z,2.13
2018-05-04T18:07:02.816Z,2.73
2018-05-04T18:09:31.159Z,2.00
2018-05-04T18:11:59.640Z,2.13
2018-05-04T18:14:27.977Z,3.33
2018-05-04T18:16:56.306Z,2.40
2018-05-04T18:19:24.645Z,2.47
2018-05-04T18:21:53.743Z,2.03
2018-05-04T18:24:22.819Z,2.00
2018-05-04T18:26:52.266Z,2.50
2018-05-04T18:29:20.638Z,2.17
2018-05-04T18:31:48.963Z,2.43
2018-05-04T18:34:17.338Z,2.60
2018-05-04T18:36:45.684Z,2.53
2018-05-04T18:39:13.982Z,2.30
2018-05-04T18:41:42.401Z,1.87
2018-05-04T18:44:11.498Z,2.53
2018-05-04T18:46:40.625Z,1.60
2018-05-04T18:49:09.252Z,2.43
2018-05-04T18:51:37.608Z,1.70
2018-05-04T18:54:05.974Z,2.73
2018-05-04T18:56:34.317Z,1.93
2018-05-04T18:59:03.424Z,2.10
2018-05-04T19:01:32.512Z,2.50
2018-05-04T19:04:02.027Z,2.30
2018-05-04T19:06:31.142Z,2.10
2018-05-04T19:08:59.484Z,2.10
2018-05-04T19:11:28.379Z,2.10
2018-05-04T19:13:56.708Z,2.40
2018-05-04T19:16:25.070Z,1.63
2018-05-04T19:18:53.414Z,2.17
2018-05-04T19:21:21.756Z,2.00
2018-05-04T19:23:50.081Z,1.90
2018-05-04T19:26:19.211Z,2.03
2018-05-04T19:28:47.629Z,2.03
2018-05-04T19:31:15.935Z,1.80
2018-05-04T19:33:45.452Z,1.83
2018-05-04T19:36:14.565Z,1.90
2018-05-04T19:38:42.920Z,1.53
2018-05-04T19:41:11.271Z,1.80
2018-05-04T19:43:39.571Z,1.77
2018-05-04T19:46:08.703Z,1.80
2018-05-04T19:48:37.032Z,1.90
2018-05-04T19:51:05.344Z,1.50
2018-05-04T19:53:33.668Z,2.10
2018-05-04T19:56:02.125Z,2.07
2018-05-04T19:58:30.457Z,1.70
2018-05-04T20:00:58.847Z,1.53
2018-05-04T20:03:27.211Z,1.80
2018-05-04T20:05:55.744Z,1.60
2018-05-04T20:08:24.078Z,1.83
2018-05-04T20:10:53.392Z,1.90
2018-05-04T20:13:21.723Z,2.03
2018-05-04T20:15:50.076Z,2.23
2018-05-04T20:18:18.540Z,2.97
2018-05-04T20:20:47.665Z,2.27
2018-05-04T20:23:15.984Z,2.50
2018-05-04T20:25:44.318Z,3.43
2018-05-04T20:28:12.644Z,3.20
2018-05-04T20:30:40.977Z,5.23
2018-05-04T20:33:09.321Z,2.83
2018-05-04T20:35:37.657Z,3.33
2018-05-04T20:38:05.995Z,2.60
2018-05-04T20:40:34.739Z,2.40
2018-05-04T20:43:03.052Z,2.00
2018-05-04T20:45:32.116Z,1.87
2018-05-04T20:48:00.529Z,2.30
2018-05-04T20:50:29.623Z,2.50
2018-05-04T20:52:58.710Z,2.80
2018-05-04T20:55:27.847Z,2.60
2018-05-04T20:57:56.196Z,2.20
2018-05-04T21:00:24.503Z,3.53
2018-05-04T21:02:53.337Z,2.10
2018-05-04T21:05:21.671Z,3.23
2018-05-04T21:07:50.015Z,2.80
2018-05-04T21:10:19.139Z,2.57
2018-05-04T21:12:47.476Z,2.57
2018-05-04T21:15:15.813Z,2.87
2018-05-04T21:17:44.175Z,2.87
2018-05-04T21:20:12.487Z,2.43
2018-05-04T21:22:40.837Z,2.30
2018-05-04T21:25:09.322Z,2.90
2018-05-04T21:27:37.649Z,2.47
2018-05-04T21:30:06.751Z,2.97
2018-05-04T21:32:35.880Z,2.83
2018-05-04T21:35:04.223Z,2.90
2018-05-04T21:37:33.344Z,3.10
2018-05-04T21:40:01.757Z,2.97
2018-05-04T21:42:30.070Z,3.57
2018-05-04T21:44:58.387Z,2.83
2018-05-04T21:47:27.033Z,3.00
2018-05-04T21:49:55.375Z,3.00
2018-05-04T21:52:23.673Z,3.30
2018-05-04T21:54:52.035Z,5.20
2018-05-04T21:57:20.365Z,3.50
2018-05-04T21:59:49.439Z,3.40
2018-05-04T22:02:18.147Z,3.03
2018-05-04T22:04:47.277Z,3.70
2018-05-04T22:07:16.022Z,2.90
2018-05-04T22:09:44.988Z,3.13
2018-05-04T22:12:13.307Z,3.17
2018-05-04T22:14:41.627Z,3.27
2018-05-04T22:17:09.989Z,2.80
2018-05-04T22:19:38.313Z,3.23
2018-05-04T22:22:06.650Z,3.03
2018-05-04T22:24:34.995Z,2.93
2018-05-04T22:27:04.084Z,3.03
2018-05-04T22:29:32.405Z,2.80
2018-05-04T22:32:00.841Z,3.10
2018-05-04T22:34:29.182Z,2.53
2018-05-04T22:36:57.514Z,3.13
2018-05-04T22:39:25.878Z,2.50
2018-05-04T22:41:54.951Z,3.30
2018-05-04T22:44:23.261Z,3.07
2018-05-04T22:46:51.634Z,3.10
2018-05-04T22:49:19.929Z,3.27
2018-05-04T22:51:49.050Z,2.50
2018-05-04T22:54:17.881Z,3.20
2018-05-04T22:56:46.183Z,3.20
2018-05-04T22:59:15.275Z,3.13
2018-05-04T23:01:43.618Z,2.97
2018-05-04T23:04:11.915Z,2.93
2018-05-04T23:06:40.257Z,3.43
2018-05-04T23:09:08.865Z,2.60
2018-05-04T23:11:37.943Z,3.40
2018-05-04T23:14:07.041Z,3.00
2018-05-04T23:16:35.519Z,4.00
2018-05-04T23:19:03.843Z,3.37
2018-05-04T23:21:32.156Z,3.30
2018-05-04T23:24:00.493Z,4.90
2018-05-04T23:26:28.811Z,4.20
2018-05-04T23:28:57.152Z,3.67
2018-05-04T23:31:26.286Z,2.73
2018-05-04T23:33:54.642Z,3.30
2018-05-04T23:36:23.018Z,2.93
2018-05-04T23:38:52.325Z,2.77
2018-05-04T23:41:21.452Z,3.40
2018-05-04T23:43:49.764Z,2.40
2018-05-04T23:46:18.102Z,2.70
2018-05-04T23:48:46.415Z,4.00
2018-05-04T23:51:14.730Z,3.30
2018-05-04T23:53:43.852Z,3.63
2018-05-04T23:56:12.174Z,3.80
2018-05-04T23:58:40.482Z,3.30
